sensor_id;sensor_type;location;lat;lon;timestamp;pressure;altitude;pressure_sealevel;temperature;humidity
75157;BME280;63736;50.076;8.198;2023-07-29T00:01:13;98937.75;;;17.47;100.00
75157;BME280;63736;50.076;8.198;2023-07-29T00:03:38;98934.72;;;17.50;100.00
75157;BME280;63736;50.076;8.198;2023-07-29T00:06:03;98937.84;;;17.54;100.00
75157;BME280;63736;50.076;8.198;2023-07-29T00:08:29;98933.28;;;17.55;100.00
75157;BME280;63736;50.076;8.198;2023-07-29T00:10:54;98930.41;;;17.56;100.00
75157;BME280;63736;50.076;8.198;2023-07-29T00:13:19;98928.72;;;17.55;100.00
75157;BME280;63736;50.076;8.198;2023-07-29T00:15:44;98929.56;;;17.56;100.00
75157;BME280;63736;50.076;8.198;2023-07-29T00:18:10;98928.91;;;17.54;100.00
75157;BME280;63736;50.076;8.198;2023-07-29T00:20:35;98931.16;;;17.50;100.00
75157;BME280;63736;50.076;8.198;2023-07-29T00:23:00;98927.16;;;17.46;100.00
75157;BME280;63736;50.076;8.198;2023-07-29T00:25:26;98930.41;;;17.41;100.00
75157;BME280;63736;50.076;8.198;2023-07-29T00:27:54;98924.09;;;17.34;100.00
75157;BME280;63736;50.076;8.198;2023-07-29T00:30:19;98918.03;;;17.32;100.00
75157;BME280;63736;50.076;8.198;2023-07-29T00:32:45;98919.25;;;17.29;100.00
75157;BME280;63736;50.076;8.198;2023-07-29T00:35:10;98921.75;;;17.31;100.00
75157;BME280;63736;50.076;8.198;2023-07-29T00:37:35;98920.53;;;17.33;100.00
75157;BME280;63736;50.076;8.198;2023-07-29T00:40:03;98913.78;;;17.38;100.00
75157;BME280;63736;50.076;8.198;2023-07-29T00:42:28;98918.59;;;17.42;100.00
75157;BME280;63736;50.076;8.198;2023-07-29T00:44:53;98906.56;;;17.45;100.00
75157;BME280;63736;50.076;8.198;2023-07-29T00:47:19;98901.44;;;17.50;100.00
75157;BME280;63736;50.076;8.198;2023-07-29T00:49:45;98905.44;;;17.54;100.00
75157;BME280;63736;50.076;8.198;2023-07-29T00:52:11;98911.31;;;17.58;100.00
75157;BME280;63736;50.076;8.198;2023-07-29T00:54:39;98899.09;;;17.62;100.00
75157;BME280;63736;50.076;8.198;2023-07-29T00:57:08;98893.31;;;17.65;100.00
75157;BME280;63736;50.076;8.198;2023-07-29T00:59:35;98895.63;;;17.68;100.00
75157;BME280;63736;50.076;8.198;2023-07-29T01:02:01;98885.66;;;17.68;100.00
75157;BME280;63736;50.076;8.198;2023-07-29T01:04:27;98896.66;;;17.67;100.00
75157;BME280;63736;50.076;8.198;2023-07-29T01:07:07;98896.19;;;17.63;100.00
75157;BME280;63736;50.076;8.198;2023-07-29T01:12:35;98876.78;;;17.53;100.00
75157;BME280;63736;50.076;8.198;2023-07-29T01:15:18;98866.75;;;17.47;100.00
75157;BME280;63736;50.076;8.198;2023-07-29T01:20:32;98877.34;;;17.33;100.00
75157;BME280;63736;50.076;8.198;2023-07-29T01:22:58;98885.03;;;17.30;100.00
75157;BME280;63736;50.076;8.198;2023-07-29T01:25:23;98882.88;;;17.25;100.00
75157;BME280;63736;50.076;8.198;2023-07-29T01:27:51;98882.88;;;17.25;100.00
75157;BME280;63736;50.076;8.198;2023-07-29T01:30:22;98890.34;;;17.23;100.00
75157;BME280;63736;50.076;8.198;2023-07-29T01:35:42;98886.22;;;17.27;100.00
75157;BME280;63736;50.076;8.198;2023-07-29T01:38:26;98882.31;;;17.30;100.00
75157;BME280;63736;50.076;8.198;2023-07-29T01:40:54;98889.19;;;17.32;100.00
75157;BME280;63736;50.076;8.198;2023-07-29T01:43:21;98891.50;;;17.36;100.00
75157;BME280;63736;50.076;8.198;2023-07-29T01:45:49;98884.50;;;17.41;100.00
75157;BME280;63736;50.076;8.198;2023-07-29T01:48:14;98875.03;;;17.45;100.00
75157;BME280;63736;50.076;8.198;2023-07-29T01:50:39;98867.19;;;17.50;100.00
75157;BME280;63736;50.076;8.198;2023-07-29T01:53:05;98869.50;;;17.54;100.00
75157;BME280;63736;50.076;8.198;2023-07-29T01:55:30;98870.34;;;17.54;100.00
75157;BME280;63736;50.076;8.198;2023-07-29T01:57:55;98869.97;;;17.57;100.00
75157;BME280;63736;50.076;8.198;2023-07-29T02:00:21;98870.25;;;17.62;100.00
75157;BME280;63736;50.076;8.198;2023-07-29T02:02:46;98870.88;;;17.64;100.00
75157;BME280;63736;50.076;8.198;2023-07-29T02:05:11;98871.31;;;17.68;100.00
75157;BME280;63736;50.076;8.198;2023-07-29T02:07:37;98864.72;;;17.71;100.00
75157;BME280;63736;50.076;8.198;2023-07-29T02:10:02;98855.19;;;17.75;100.00
75157;BME280;63736;50.076;8.198;2023-07-29T02:12:28;98855.84;;;17.77;100.00
75157;BME280;63736;50.076;8.198;2023-07-29T02:14:53;98860.84;;;17.80;100.00
75157;BME280;63736;50.076;8.198;2023-07-29T02:17:18;98865.03;;;17.82;100.00
75157;BME280;63736;50.076;8.198;2023-07-29T02:19:44;98862.78;;;17.86;100.00
75157;BME280;63736;50.076;8.198;2023-07-29T02:22:13;98860.53;;;17.90;100.00
75157;BME280;63736;50.076;8.198;2023-07-29T02:24:38;98868.44;;;17.91;100.00
75157;BME280;63736;50.076;8.198;2023-07-29T02:27:03;98858.31;;;17.93;100.00
75157;BME280;63736;50.076;8.198;2023-07-29T02:29:29;98851.88;;;17.94;100.00
75157;BME280;63736;50.076;8.198;2023-07-29T02:31:55;98853.16;;;17.98;100.00
75157;BME280;63736;50.076;8.198;2023-07-29T02:34:21;98838.63;;;17.99;100.00
75157;BME280;63736;50.076;8.198;2023-07-29T02:36:46;98846.09;;;17.97;100.00
75157;BME280;63736;50.076;8.198;2023-07-29T02:39:11;98839.47;;;18.00;100.00
75157;BME280;63736;50.076;8.198;2023-07-29T02:41:36;98840.50;;;17.99;100.00
75157;BME280;63736;50.076;8.198;2023-07-29T02:44:02;98839.28;;;18.02;100.00
75157;BME280;63736;50.076;8.198;2023-07-29T02:46:28;98827.44;;;18.03;100.00
75157;BME280;63736;50.076;8.198;2023-07-29T02:48:53;98828.47;;;18.02;100.00
75157;BME280;63736;50.076;8.198;2023-07-29T02:51:19;98830.31;;;18.01;100.00
75157;BME280;63736;50.076;8.198;2023-07-29T02:53:44;98826.78;;;18.00;100.00
75157;BME280;63736;50.076;8.198;2023-07-29T02:56:09;98816.63;;;18.03;100.00
75157;BME280;63736;50.076;8.198;2023-07-29T02:58:35;98818.47;;;18.02;100.00
75157;BME280;63736;50.076;8.198;2023-07-29T03:01:02;98818.47;;;18.02;100.00
75157;BME280;63736;50.076;8.198;2023-07-29T03:03:28;98813.09;;;18.02;100.00
75157;BME280;63736;50.076;8.198;2023-07-29T03:06:06;98808.53;;;18.03;100.00
75157;BME280;63736;50.076;8.198;2023-07-29T03:08:31;98810.19;;;18.04;100.00
75157;BME280;63736;50.076;8.198;2023-07-29T03:10:57;98801.91;;;18.05;100.00
75157;BME280;63736;50.076;8.198;2023-07-29T03:13:22;98796.28;;;18.07;100.00
75157;BME280;63736;50.076;8.198;2023-07-29T03:15:48;98802.31;;;18.09;100.00
75157;BME280;63736;50.076;8.198;2023-07-29T03:18:14;98802.16;;;18.10;100.00
75157;BME280;63736;50.076;8.198;2023-07-29T03:20:39;98797.38;;;18.12;100.00
75157;BME280;63736;50.076;8.198;2023-07-29T03:23:04;98799.88;;;18.14;100.00
75157;BME280;63736;50.076;8.198;2023-07-29T03:25:30;98806.94;;;18.15;100.00
75157;BME280;63736;50.076;8.198;2023-07-29T03:27:55;98802.56;;;18.14;100.00
75157;BME280;63736;50.076;8.198;2023-07-29T03:30:21;98804.25;;;18.15;100.00
75157;BME280;63736;50.076;8.198;2023-07-29T03:32:47;98813.22;;;18.15;100.00
75157;BME280;63736;50.076;8.198;2023-07-29T03:35:12;98808.63;;;18.16;100.00
75157;BME280;63736;50.076;8.198;2023-07-29T03:37:38;98813.00;;;18.17;100.00
75157;BME280;63736;50.076;8.198;2023-07-29T03:40:04;98810.09;;;18.19;100.00
75157;BME280;63736;50.076;8.198;2023-07-29T03:42:30;98800.13;;;18.19;100.00
75157;BME280;63736;50.076;8.198;2023-07-29T03:44:55;98799.50;;;18.17;100.00
75157;BME280;63736;50.076;8.198;2023-07-29T03:47:20;98792.00;;;18.19;100.00
75157;BME280;63736;50.076;8.198;2023-07-29T03:49:46;98803.03;;;18.17;100.00
75157;BME280;63736;50.076;8.198;2023-07-29T03:52:11;98796.19;;;18.22;100.00
75157;BME280;63736;50.076;8.198;2023-07-29T03:54:36;98801.59;;;18.22;100.00
75157;BME280;63736;50.076;8.198;2023-07-29T03:57:02;98809.50;;;18.23;100.00
75157;BME280;63736;50.076;8.198;2023-07-29T03:59:27;98796.19;;;18.22;100.00
75157;BME280;63736;50.076;8.198;2023-07-29T04:01:52;98802.25;;;18.24;100.00
75157;BME280;63736;50.076;8.198;2023-07-29T04:04:18;98803.06;;;18.24;100.00
75157;BME280;63736;50.076;8.198;2023-07-29T04:06:43;98793.94;;;18.25;100.00
75157;BME280;63736;50.076;8.198;2023-07-29T04:09:08;98796.63;;;18.25;100.00
75157;BME280;63736;50.076;8.198;2023-07-29T04:11:34;98794.75;;;18.26;100.00
75157;BME280;63736;50.076;8.198;2023-07-29T04:13:59;98792.91;;;18.26;100.00
75157;BME280;63736;50.076;8.198;2023-07-29T04:16:25;98807.25;;;18.27;100.00
75157;BME280;63736;50.076;8.198;2023-07-29T04:18:50;98798.09;;;18.28;100.00
75157;BME280;63736;50.076;8.198;2023-07-29T04:21:15;98800.59;;;18.29;100.00
75157;BME280;63736;50.076;8.198;2023-07-29T04:23:41;98795.19;;;18.29;100.00
75157;BME280;63736;50.076;8.198;2023-07-29T04:26:06;98785.66;;;18.33;100.00
75157;BME280;63736;50.076;8.198;2023-07-29T04:28:31;98782.59;;;18.37;100.00
75157;BME280;63736;50.076;8.198;2023-07-29T04:30:56;98779.47;;;18.40;100.00
75157;BME280;63736;50.076;8.198;2023-07-29T04:33:22;98778.44;;;18.41;100.00
75157;BME280;63736;50.076;8.198;2023-07-29T04:35:47;98790.31;;;18.46;100.00
75157;BME280;63736;50.076;8.198;2023-07-29T04:38:12;98778.28;;;18.49;100.00
75157;BME280;63736;50.076;8.198;2023-07-29T04:40:38;98785.59;;;18.55;100.00
75157;BME280;63736;50.076;8.198;2023-07-29T04:43:03;98790.44;;;18.60;100.00
75157;BME280;63736;50.076;8.198;2023-07-29T04:45:29;98790.84;;;18.63;100.00
75157;BME280;63736;50.076;8.198;2023-07-29T04:47:55;98790.47;;;18.66;100.00
75157;BME280;63736;50.076;8.198;2023-07-29T04:50:20;98785.50;;;18.70;100.00
75157;BME280;63736;50.076;8.198;2023-07-29T04:52:45;98793.84;;;18.75;100.00
75157;BME280;63736;50.076;8.198;2023-07-29T04:55:11;98781.97;;;18.76;100.00
75157;BME280;63736;50.076;8.198;2023-07-29T04:57:36;98782.41;;;18.80;100.00
75157;BME280;63736;50.076;8.198;2023-07-29T05:00:02;98779.94;;;18.85;100.00
75157;BME280;63736;50.076;8.198;2023-07-29T05:02:28;98784.78;;;18.90;100.00
75157;BME280;63736;50.076;8.198;2023-07-29T05:04:53;98780.63;;;18.94;100.00
75157;BME280;63736;50.076;8.198;2023-07-29T05:07:18;98771.72;;;19.00;100.00
75157;BME280;63736;50.076;8.198;2023-07-29T05:09:44;98776.94;;;19.08;100.00
75157;BME280;63736;50.076;8.198;2023-07-29T05:12:09;98780.09;;;19.19;100.00
75157;BME280;63736;50.076;8.198;2023-07-29T05:14:34;98766.59;;;19.32;100.00
75157;BME280;63736;50.076;8.198;2023-07-29T05:16:59;98771.00;;;19.40;100.00
75157;BME280;63736;50.076;8.198;2023-07-29T05:19:26;98775.81;;;19.51;100.00
75157;BME280;63736;50.076;8.198;2023-07-29T05:21:51;98782.28;;;19.57;100.00
75157;BME280;63736;50.076;8.198;2023-07-29T05:24:17;98783.72;;;19.59;100.00
75157;BME280;63736;50.076;8.198;2023-07-29T05:26:42;98790.41;;;19.63;100.00
75157;BME280;63736;50.076;8.198;2023-07-29T05:29:07;98789.78;;;19.68;100.00
75157;BME280;63736;50.076;8.198;2023-07-29T05:31:32;98789.38;;;19.78;100.00
75157;BME280;63736;50.076;8.198;2023-07-29T05:33:58;98801.09;;;19.85;100.00
75157;BME280;63736;50.076;8.198;2023-07-29T05:36:24;98794.00;;;19.91;100.00
75157;BME280;63736;50.076;8.198;2023-07-29T05:38:50;98792.75;;;20.00;100.00
75157;BME280;63736;50.076;8.198;2023-07-29T05:41:16;98789.84;;;20.08;100.00
75157;BME280;63736;50.076;8.198;2023-07-29T05:43:41;98795.69;;;20.12;100.00
75157;BME280;63736;50.076;8.198;2023-07-29T05:46:08;98792.13;;;20.11;100.00
75157;BME280;63736;50.076;8.198;2023-07-29T05:48:34;98790.91;;;20.07;100.00
75157;BME280;63736;50.076;8.198;2023-07-29T05:50:59;98812.38;;;20.02;100.00
75157;BME280;63736;50.076;8.198;2023-07-29T05:53:24;98821.31;;;19.96;100.00
75157;BME280;63736;50.076;8.198;2023-07-29T05:55:50;98818.63;;;19.89;100.00
75157;BME280;63736;50.076;8.198;2023-07-29T05:58:15;98821.31;;;19.83;100.00
75157;BME280;63736;50.076;8.198;2023-07-29T06:00:40;98822.09;;;19.76;100.00
75157;BME280;63736;50.076;8.198;2023-07-29T06:03:06;98805.84;;;19.70;100.00
75157;BME280;63736;50.076;8.198;2023-07-29T06:05:31;98800.22;;;19.64;100.00
75157;BME280;63736;50.076;8.198;2023-07-29T06:07:57;98804.59;;;19.59;100.00
75157;BME280;63736;50.076;8.198;2023-07-29T06:10:22;98817.91;;;19.54;100.00
75157;BME280;63736;50.076;8.198;2023-07-29T06:12:47;98809.34;;;19.50;100.00
75157;BME280;63736;50.076;8.198;2023-07-29T06:15:13;98795.81;;;19.50;100.00
75157;BME280;63736;50.076;8.198;2023-07-29T06:17:39;98806.00;;;19.48;100.00
75157;BME280;63736;50.076;8.198;2023-07-29T06:20:05;98801.66;;;19.47;100.00
75157;BME280;63736;50.076;8.198;2023-07-29T06:22:31;98803.72;;;19.45;100.00
75157;BME280;63736;50.076;8.198;2023-07-29T06:24:56;98781.41;;;19.43;100.00
75157;BME280;63736;50.076;8.198;2023-07-29T06:27:21;98780.16;;;19.39;100.00
75157;BME280;63736;50.076;8.198;2023-07-29T06:29:47;98792.63;;;19.33;100.00
75157;BME280;63736;50.076;8.198;2023-07-29T06:32:12;98808.25;;;19.31;100.00
75157;BME280;63736;50.076;8.198;2023-07-29T06:34:37;98816.78;;;19.28;100.00
75157;BME280;63736;50.076;8.198;2023-07-29T06:37:03;98823.44;;;19.25;100.00
75157;BME280;63736;50.076;8.198;2023-07-29T06:39:28;98833.00;;;19.21;100.00
75157;BME280;63736;50.076;8.198;2023-07-29T06:41:53;98840.69;;;19.18;100.00
75157;BME280;63736;50.076;8.198;2023-07-29T06:44:19;98829.44;;;19.14;100.00
75157;BME280;63736;50.076;8.198;2023-07-29T06:46:44;98834.22;;;19.12;100.00
75157;BME280;63736;50.076;8.198;2023-07-29T06:49:09;98825.47;;;19.10;100.00
75157;BME280;63736;50.076;8.198;2023-07-29T06:51:34;98806.72;;;19.08;100.00
75157;BME280;63736;50.076;8.198;2023-07-29T06:54:01;98784.22;;;19.08;100.00
75157;BME280;63736;50.076;8.198;2023-07-29T06:56:27;98788.38;;;19.10;100.00
75157;BME280;63736;50.076;8.198;2023-07-29T06:58:52;98798.81;;;19.13;100.00
75157;BME280;63736;50.076;8.198;2023-07-29T07:01:18;98816.75;;;19.21;100.00
75157;BME280;63736;50.076;8.198;2023-07-29T07:03:43;98832.22;;;19.27;100.00
75157;BME280;63736;50.076;8.198;2023-07-29T07:06:08;98843.66;;;19.36;100.00
75157;BME280;63736;50.076;8.198;2023-07-29T07:08:33;98838.47;;;19.41;100.00
75157;BME280;63736;50.076;8.198;2023-07-29T07:10:59;98852.03;;;19.48;100.00
75157;BME280;63736;50.076;8.198;2023-07-29T07:13:24;98848.31;;;19.49;100.00
75157;BME280;63736;50.076;8.198;2023-07-29T07:15:49;98854.13;;;19.46;100.00
75157;BME280;63736;50.076;8.198;2023-07-29T07:18:15;98850.16;;;19.42;100.00
75157;BME280;63736;50.076;8.198;2023-07-29T07:20:40;98861.19;;;19.40;100.00
75157;BME280;63736;50.076;8.198;2023-07-29T07:23:05;98857.22;;;19.43;100.00
75157;BME280;63736;50.076;8.198;2023-07-29T07:25:33;98848.72;;;19.46;100.00
75157;BME280;63736;50.076;8.198;2023-07-29T07:27:59;98853.72;;;19.49;100.00
75157;BME280;63736;50.076;8.198;2023-07-29T07:30:24;98861.03;;;19.55;100.00
75157;BME280;63736;50.076;8.198;2023-07-29T07:32:49;98849.59;;;19.60;100.00
75157;BME280;63736;50.076;8.198;2023-07-29T07:35:15;98842.31;;;19.67;100.00
75157;BME280;63736;50.076;8.198;2023-07-29T07:37:41;98844.41;;;19.72;100.00
75157;BME280;63736;50.076;8.198;2023-07-29T07:40:06;98838.56;;;19.75;100.00
75157;BME280;63736;50.076;8.198;2023-07-29T07:42:32;98836.91;;;19.80;100.00
75157;BME280;63736;50.076;8.198;2023-07-29T07:44:57;98846.34;;;19.91;100.00
75157;BME280;63736;50.076;8.198;2023-07-29T07:47:23;98844.28;;;20.13;100.00
75157;BME280;63736;50.076;8.198;2023-07-29T07:49:48;98852.41;;;20.60;100.00
75157;BME280;63736;50.076;8.198;2023-07-29T07:52:15;98855.28;;;20.99;100.00
75157;BME280;63736;50.076;8.198;2023-07-29T07:54:40;98860.53;;;21.46;100.00
75157;BME280;63736;50.076;8.198;2023-07-29T07:57:06;98860.78;;;21.83;100.00
75157;BME280;63736;50.076;8.198;2023-07-29T07:59:31;98865.53;;;21.94;100.00
75157;BME280;63736;50.076;8.198;2023-07-29T08:01:56;98867.19;;;21.95;100.00
75157;BME280;63736;50.076;8.198;2023-07-29T08:04:22;98868.69;;;21.85;100.00
75157;BME280;63736;50.076;8.198;2023-07-29T08:06:47;98858.53;;;21.73;100.00
75157;BME280;63736;50.076;8.198;2023-07-29T08:09:12;98846.66;;;21.68;100.00
75157;BME280;63736;50.076;8.198;2023-07-29T08:11:37;98845.72;;;21.81;100.00
75157;BME280;63736;50.076;8.198;2023-07-29T08:14:03;98841.28;;;21.93;100.00
75157;BME280;63736;50.076;8.198;2023-07-29T08:16:28;98845.97;;;22.11;100.00
75157;BME280;63736;50.076;8.198;2023-07-29T08:18:53;98845.22;;;22.22;100.00
75157;BME280;63736;50.076;8.198;2023-07-29T08:21:19;98856.88;;;22.30;100.00
75157;BME280;63736;50.076;8.198;2023-07-29T08:23:44;98852.56;;;22.72;100.00
75157;BME280;63736;50.076;8.198;2023-07-29T08:26:09;98862.03;;;23.74;100.00
75157;BME280;63736;50.076;8.198;2023-07-29T08:28:36;98851.56;;;24.32;100.00
75157;BME280;63736;50.076;8.198;2023-07-29T08:31:02;98850.19;;;25.42;100.00
75157;BME280;63736;50.076;8.198;2023-07-29T08:33:28;98849.84;;;25.67;100.00
75157;BME280;63736;50.076;8.198;2023-07-29T08:35:53;98851.13;;;25.76;100.00
75157;BME280;63736;50.076;8.198;2023-07-29T08:38:19;98853.56;;;25.89;100.00
75157;BME280;63736;50.076;8.198;2023-07-29T08:40:59;98853.88;;;26.39;100.00
75157;BME280;63736;50.076;8.198;2023-07-29T08:43:29;98848.13;;;26.58;100.00
75157;BME280;63736;50.076;8.198;2023-07-29T08:45:57;98853.03;;;27.34;100.00
75157;BME280;63736;50.076;8.198;2023-07-29T08:48:31;98851.41;;;28.10;100.00
75157;BME280;63736;50.076;8.198;2023-07-29T08:50:59;98849.53;;;29.44;89.81
75157;BME280;63736;50.076;8.198;2023-07-29T08:53:26;98845.72;;;29.55;81.13
75157;BME280;63736;50.076;8.198;2023-07-29T08:55:53;98846.63;;;29.87;80.31
75157;BME280;63736;50.076;8.198;2023-07-29T08:58:20;98850.25;;;30.03;76.38
75157;BME280;63736;50.076;8.198;2023-07-29T09:00:47;98845.97;;;29.43;79.28
75157;BME280;63736;50.076;8.198;2023-07-29T09:03:13;98845.13;;;29.43;79.17
75157;BME280;63736;50.076;8.198;2023-07-29T09:05:38;98852.47;;;30.16;75.95
75157;BME280;63736;50.076;8.198;2023-07-29T09:08:04;98853.81;;;30.29;71.50
75157;BME280;63736;50.076;8.198;2023-07-29T09:10:29;98854.41;;;30.57;68.73
75157;BME280;63736;50.076;8.198;2023-07-29T09:12:55;98860.47;;;30.33;68.77
75157;BME280;63736;50.076;8.198;2023-07-29T09:15:30;98856.81;;;29.86;69.90
75157;BME280;63736;50.076;8.198;2023-07-29T09:17:57;98856.28;;;29.21;71.78
75157;BME280;63736;50.076;8.198;2023-07-29T09:20:26;98862.91;;;28.72;74.71
75157;BME280;63736;50.076;8.198;2023-07-29T09:22:53;98861.28;;;28.38;75.20
75157;BME280;63736;50.076;8.198;2023-07-29T09:25:24;98862.28;;;27.99;77.15
75157;BME280;63736;50.076;8.198;2023-07-29T09:27:49;98867.00;;;27.77;79.93
75157;BME280;63736;50.076;8.198;2023-07-29T09:30:17;98867.66;;;27.62;80.04
75157;BME280;63736;50.076;8.198;2023-07-29T09:32:43;98868.75;;;27.39;81.97
75157;BME280;63736;50.076;8.198;2023-07-29T09:35:12;98859.94;;;27.14;84.90
75157;BME280;63736;50.076;8.198;2023-07-29T09:37:40;98861.41;;;27.22;85.26
75157;BME280;63736;50.076;8.198;2023-07-29T09:40:06;98868.88;;;27.49;85.83
75157;BME280;63736;50.076;8.198;2023-07-29T09:42:32;98859.41;;;27.89;80.71
75157;BME280;63736;50.076;8.198;2023-07-29T09:44:57;98856.41;;;28.18;79.58
75157;BME280;63736;50.076;8.198;2023-07-29T09:47:24;98855.69;;;29.03;72.59
75157;BME280;63736;50.076;8.198;2023-07-29T09:49:51;98841.19;;;29.23;71.92
75157;BME280;63736;50.076;8.198;2023-07-29T09:52:18;98840.59;;;30.72;65.73
75157;BME280;63736;50.076;8.198;2023-07-29T09:54:44;98841.13;;;32.05;56.48
75157;BME280;63736;50.076;8.198;2023-07-29T09:57:11;98842.34;;;31.34;56.83
75157;BME280;63736;50.076;8.198;2023-07-29T09:59:37;98840.28;;;30.89;55.30
75157;BME280;63736;50.076;8.198;2023-07-29T10:02:03;98839.22;;;30.39;57.35
75157;BME280;63736;50.076;8.198;2023-07-29T10:04:29;98838.41;;;30.33;56.80
75157;BME280;63736;50.076;8.198;2023-07-29T10:06:55;98839.81;;;30.30;55.88
75157;BME280;63736;50.076;8.198;2023-07-29T10:09:22;98844.34;;;29.53;56.56
75157;BME280;63736;50.076;8.198;2023-07-29T10:11:49;98840.13;;;28.76;59.29
75157;BME280;63736;50.076;8.198;2023-07-29T10:14:16;98850.66;;;28.14;62.04
75157;BME280;63736;50.076;8.198;2023-07-29T10:16:43;98858.53;;;27.56;65.33
75157;BME280;63736;50.076;8.198;2023-07-29T10:19:10;98852.56;;;26.98;70.85
75157;BME280;63736;50.076;8.198;2023-07-29T10:21:38;98860.78;;;26.42;76.43
75157;BME280;63736;50.076;8.198;2023-07-29T10:24:06;98854.94;;;26.04;80.71
75157;BME280;63736;50.076;8.198;2023-07-29T10:26:34;98862.31;;;25.75;84.84
75157;BME280;63736;50.076;8.198;2023-07-29T10:29:04;98850.19;;;25.42;88.13
75157;BME280;63736;50.076;8.198;2023-07-29T10:31:30;98849.19;;;25.07;92.05
75157;BME280;63736;50.076;8.198;2023-07-29T10:33:56;98852.44;;;24.80;97.96
75157;BME280;63736;50.076;8.198;2023-07-29T10:36:22;98853.69;;;24.54;100.00
75157;BME280;63736;50.076;8.198;2023-07-29T10:38:47;98849.53;;;24.39;100.00
75157;BME280;63736;50.076;8.198;2023-07-29T10:41:13;98842.66;;;24.49;100.00
75157;BME280;63736;50.076;8.198;2023-07-29T10:43:38;98853.50;;;24.67;100.00
75157;BME280;63736;50.076;8.198;2023-07-29T10:46:23;98846.63;;;24.65;100.00
75157;BME280;63736;50.076;8.198;2023-07-29T10:48:52;98848.25;;;24.66;100.00
75157;BME280;63736;50.076;8.198;2023-07-29T10:51:35;98842.44;;;24.86;100.00
75157;BME280;63736;50.076;8.198;2023-07-29T10:54:11;98835.50;;;25.07;100.00
75157;BME280;63736;50.076;8.198;2023-07-29T10:56:41;98831.19;;;25.23;100.00
75157;BME280;63736;50.076;8.198;2023-07-29T11:01:41;98827.78;;;25.56;97.13
75157;BME280;63736;50.076;8.198;2023-07-29T11:15:04;98821.41;;;26.65;84.89
75157;BME280;63736;50.076;8.198;2023-07-29T11:17:45;98817.56;;;26.83;83.64
75157;BME280;63736;50.076;8.198;2023-07-29T11:20:11;98825.16;;;26.98;81.65
75157;BME280;63736;50.076;8.198;2023-07-29T11:22:38;98823.19;;;27.15;81.09
75157;BME280;63736;50.076;8.198;2023-07-29T11:25:04;98819.69;;;27.42;78.92
75157;BME280;63736;50.076;8.198;2023-07-29T11:27:30;98830.63;;;27.64;77.68
75157;BME280;63736;50.076;8.198;2023-07-29T11:29:59;98830.78;;;27.80;74.97
75157;BME280;63736;50.076;8.198;2023-07-29T11:32:25;98825.78;;;27.99;73.92
75157;BME280;63736;50.076;8.198;2023-07-29T11:34:51;98826.44;;;28.11;72.26
75157;BME280;63736;50.076;8.198;2023-07-29T11:37:16;98824.00;;;28.15;71.54
75157;BME280;63736;50.076;8.198;2023-07-29T11:39:43;98818.81;;;28.18;68.86
75157;BME280;63736;50.076;8.198;2023-07-29T11:42:12;98811.25;;;28.36;67.72
75157;BME280;63736;50.076;8.198;2023-07-29T11:44:38;98816.28;;;28.49;67.78
75157;BME280;63736;50.076;8.198;2023-07-29T11:47:10;98809.59;;;28.35;66.09
75157;BME280;63736;50.076;8.198;2023-07-29T11:49:38;98809.47;;;28.14;66.57
75157;BME280;63736;50.076;8.198;2023-07-29T11:52:06;98814.13;;;27.86;66.67
75157;BME280;63736;50.076;8.198;2023-07-29T11:54:33;98807.44;;;27.50;66.21
75157;BME280;63736;50.076;8.198;2023-07-29T11:56:59;98805.31;;;27.35;66.71
75157;BME280;63736;50.076;8.198;2023-07-29T11:59:25;98808.72;;;27.42;66.95
75157;BME280;63736;50.076;8.198;2023-07-29T12:01:51;98802.31;;;27.59;66.14
75157;BME280;63736;50.076;8.198;2023-07-29T12:04:17;98802.66;;;27.67;63.47
75157;BME280;63736;50.076;8.198;2023-07-29T12:06:42;98794.69;;;27.66;61.87
75157;BME280;63736;50.076;8.198;2023-07-29T12:09:08;98782.69;;;27.72;60.89
75157;BME280;63736;50.076;8.198;2023-07-29T12:11:34;98795.03;;;27.69;60.53
75157;BME280;63736;50.076;8.198;2023-07-29T12:14:00;98791.34;;;27.59;60.00
75157;BME280;63736;50.076;8.198;2023-07-29T12:16:25;98786.31;;;27.50;58.80
75157;BME280;63736;50.076;8.198;2023-07-29T12:18:51;98787.50;;;27.37;55.57
75157;BME280;63736;50.076;8.198;2023-07-29T12:21:18;98781.16;;;27.32;54.93
75157;BME280;63736;50.076;8.198;2023-07-29T12:23:43;98784.50;;;27.12;55.39
75157;BME280;63736;50.076;8.198;2023-07-29T12:26:09;98776.28;;;26.90;55.38
75157;BME280;63736;50.076;8.198;2023-07-29T12:28:34;98787.19;;;26.84;56.26
75157;BME280;63736;50.076;8.198;2023-07-29T12:30:59;98791.31;;;26.70;57.20
75157;BME280;63736;50.076;8.198;2023-07-29T12:33:32;98793.44;;;26.63;58.67
75157;BME280;63736;50.076;8.198;2023-07-29T12:35:57;98792.94;;;26.49;58.88
75157;BME280;63736;50.076;8.198;2023-07-29T12:38:23;98791.16;;;26.37;59.57
75157;BME280;63736;50.076;8.198;2023-07-29T12:40:48;98804.19;;;26.30;59.87
75157;BME280;63736;50.076;8.198;2023-07-29T12:43:13;98797.94;;;26.18;60.47
75157;BME280;63736;50.076;8.198;2023-07-29T12:45:39;98789.72;;;26.01;61.33
75157;BME280;63736;50.076;8.198;2023-07-29T12:48:08;98791.97;;;25.87;62.80
75157;BME280;63736;50.076;8.198;2023-07-29T12:50:33;98800.25;;;25.75;63.98
75157;BME280;63736;50.076;8.198;2023-07-29T12:52:59;98798.94;;;25.66;64.88
75157;BME280;63736;50.076;8.198;2023-07-29T12:55:24;98799.97;;;25.60;65.14
75157;BME280;63736;50.076;8.198;2023-07-29T12:57:50;98797.88;;;25.67;66.35
75157;BME280;63736;50.076;8.198;2023-07-29T13:00:16;98800.34;;;25.80;66.46
75157;BME280;63736;50.076;8.198;2023-07-29T13:02:41;98800.66;;;25.84;64.69
75157;BME280;63736;50.076;8.198;2023-07-29T13:05:09;98800.06;;;25.82;63.87
75157;BME280;63736;50.076;8.198;2023-07-29T13:07:36;98800.91;;;25.82;63.85
75157;BME280;63736;50.076;8.198;2023-07-29T13:10:02;98795.84;;;25.91;62.78